createdAt,value
2022-10-22T00:02:21.427Z,25.00
2022-10-22T00:04:49.909Z,26.07
2022-10-22T00:07:20.459Z,54.23
2022-10-22T00:09:47.443Z,68.80
2022-10-22T00:12:15.968Z,32.90
2022-10-22T00:14:43.122Z,65.27
2022-10-22T00:17:11.502Z,48.03
2022-10-22T00:19:39.512Z,39.07
2022-10-22T00:22:06.892Z,38.63
2022-10-22T00:24:35.190Z,32.20
2022-10-22T00:27:02.415Z,54.17
2022-10-22T00:29:29.736Z,57.03
2022-10-22T00:31:56.987Z,49.97
2022-10-22T00:34:24.284Z,37.67
2022-10-22T00:36:51.876Z,58.57
2022-10-22T00:39:20.732Z,82.33
2022-10-22T00:41:49.102Z,53.20
2022-10-22T00:44:53.579Z,59.73
2022-10-22T00:47:22.552Z,44.60
2022-10-22T00:49:51.495Z,43.47
2022-10-22T00:52:18.435Z,52.43
2022-10-22T00:54:45.310Z,52.67
2022-10-22T00:57:12.066Z,29.23
2022-10-22T00:59:39.512Z,58.60
2022-10-22T01:02:06.254Z,48.47
2022-10-22T01:04:33.000Z,45.27
2022-10-22T01:06:59.936Z,44.00
2022-10-22T01:09:42.438Z,48.70
2022-10-22T01:12:17.490Z,36.53
2022-10-22T01:15:06.041Z,38.90
2022-10-22T01:18:06.905Z,37.33
2022-10-22T01:20:47.560Z,35.30
2022-10-22T01:23:21.248Z,53.67
2022-10-22T01:26:26.435Z,33.13
2022-10-22T01:29:17.384Z,41.17
2022-10-22T01:31:49.116Z,37.93
2022-10-22T01:34:19.026Z,36.33
2022-10-22T01:36:48.126Z,44.13
2022-10-22T01:39:16.260Z,37.10
2022-10-22T01:41:46.230Z,32.30
2022-10-22T01:44:27.706Z,48.93
2022-10-22T01:47:20.741Z,74.47
2022-10-22T01:49:56.064Z,49.37
2022-10-22T01:52:43.141Z,43.40
2022-10-22T01:55:18.283Z,36.53
2022-10-22T01:57:51.253Z,55.97
2022-10-22T02:00:18.989Z,42.03
2022-10-22T02:03:17.460Z,57.70
2022-10-22T02:05:51.744Z,43.47
2022-10-22T02:08:23.391Z,26.97
2022-10-22T02:10:52.323Z,35.93
2022-10-22T02:13:36.335Z,41.67
2022-10-22T02:16:06.603Z,33.00
2022-10-22T02:18:38.830Z,37.03
2022-10-22T02:23:39.489Z,33.00
2022-10-22T02:26:24.973Z,35.13
2022-10-22T02:28:58.026Z,32.03
2022-10-22T02:31:29.778Z,34.87
2022-10-22T02:34:00.666Z,43.90
2022-10-22T02:36:28.151Z,45.70
2022-10-22T02:38:55.978Z,37.70
2022-10-22T02:41:23.461Z,43.83
2022-10-22T02:43:54.481Z,71.43
2022-10-22T02:46:22.286Z,37.30
2022-10-22T02:48:49.341Z,32.87
2022-10-22T02:51:16.268Z,30.07
2022-10-22T02:53:43.020Z,44.90
2022-10-22T02:56:10.201Z,32.87
2022-10-22T02:58:36.958Z,35.87
2022-10-22T03:01:04.267Z,35.93
2022-10-22T03:03:31.156Z,36.30
2022-10-22T03:05:57.977Z,46.83
2022-10-22T03:08:24.764Z,41.00
2022-10-22T03:10:51.540Z,46.40
2022-10-22T03:13:18.285Z,46.00
2022-10-22T03:15:45.033Z,47.13
2022-10-22T03:18:12.029Z,38.43
2022-10-22T03:20:38.802Z,41.80
2022-10-22T03:23:06.121Z,45.03
2022-10-22T03:25:34.514Z,36.57
2022-10-22T03:28:05.195Z,40.90
2022-10-22T03:30:32.104Z,48.37
2022-10-22T03:32:58.848Z,48.33
2022-10-22T03:35:25.822Z,46.33
2022-10-22T03:37:52.819Z,74.57
2022-10-22T03:40:20.355Z,51.97
2022-10-22T03:42:47.309Z,48.30
2022-10-22T03:45:14.119Z,31.47
2022-10-22T03:47:41.247Z,44.77
2022-10-22T03:50:08.878Z,29.63
2022-10-22T03:52:37.890Z,48.87
2022-10-22T03:55:05.867Z,34.47
2022-10-22T03:57:32.730Z,41.33
2022-10-22T03:59:59.554Z,53.73
2022-10-22T04:02:26.415Z,35.37
2022-10-22T04:04:53.278Z,49.33
2022-10-22T04:07:20.099Z,66.07
2022-10-22T04:09:46.879Z,51.17
2022-10-22T04:12:13.790Z,46.77
2022-10-22T04:14:40.580Z,60.27
2022-10-22T04:17:07.308Z,72.90
2022-10-22T04:19:34.193Z,32.87
2022-10-22T04:22:01.634Z,47.03
2022-10-22T04:24:31.486Z,54.27
2022-10-22T04:26:58.933Z,46.77
2022-10-22T04:29:26.987Z,34.87
2022-10-22T04:31:53.757Z,27.47
2022-10-22T04:34:20.604Z,28.10
2022-10-22T04:36:47.457Z,40.03
2022-10-22T04:39:14.806Z,29.07
2022-10-22T04:41:41.557Z,35.77
2022-10-22T04:44:12.239Z,33.20
2022-10-22T04:46:42.824Z,32.90
2022-10-22T04:49:09.602Z,31.20
2022-10-22T04:51:36.356Z,33.67
2022-10-22T04:54:04.309Z,34.60
2022-10-22T04:56:32.843Z,34.03
2022-10-22T04:59:02.625Z,43.77
2022-10-22T05:01:39.899Z,34.97
2022-10-22T05:04:16.133Z,48.30
2022-10-22T05:06:43.703Z,34.50
2022-10-22T05:09:20.104Z,36.23
2022-10-22T05:11:49.969Z,28.80
2022-10-22T05:14:22.539Z,83.37
2022-10-22T05:16:50.610Z,52.70
2022-10-22T05:19:29.293Z,54.10
2022-10-22T05:21:59.165Z,31.57
2022-10-22T05:24:27.509Z,32.67
2022-10-22T05:26:57.079Z,39.80
2022-10-22T05:29:24.767Z,60.57
2022-10-22T05:31:51.794Z,26.23
2022-10-22T05:34:19.211Z,41.87
2022-10-22T05:36:46.274Z,37.43
2022-10-22T05:39:13.028Z,39.67
2022-10-22T05:41:39.948Z,37.13
2022-10-22T05:44:06.825Z,24.30
2022-10-22T05:46:35.859Z,33.53
2022-10-22T05:49:05.050Z,24.63
2022-10-22T05:51:34.796Z,34.40
2022-10-22T05:54:03.881Z,35.10
2022-10-22T05:56:32.079Z,24.37
2022-10-22T05:58:59.354Z,28.27
2022-10-22T06:01:31.713Z,28.93
2022-10-22T06:04:01.289Z,32.47
2022-10-22T06:06:54.256Z,45.53
2022-10-22T06:09:29.491Z,34.10
2022-10-22T06:11:58.223Z,27.93
2022-10-22T06:14:25.967Z,28.83
2022-10-22T06:16:53.477Z,69.97
2022-10-22T06:19:23.271Z,31.30
2022-10-22T06:21:50.080Z,53.10
2022-10-22T06:24:16.947Z,59.63
2022-10-22T06:26:43.944Z,43.13
2022-10-22T06:29:11.085Z,31.13
2022-10-22T06:31:37.908Z,34.43
2022-10-22T06:34:07.051Z,30.50
2022-10-22T06:36:34.086Z,28.43
2022-10-22T06:39:00.867Z,53.40
2022-10-22T06:41:28.901Z,31.57
2022-10-22T06:43:57.602Z,32.73
2022-10-22T06:46:25.200Z,34.53
2022-10-22T06:48:57.130Z,27.00
2022-10-22T06:51:24.850Z,29.30
2022-10-22T06:53:51.624Z,30.97
2022-10-22T06:56:21.297Z,30.00
2022-10-22T06:58:52.787Z,31.77
2022-10-22T07:01:22.315Z,40.30
2022-10-22T07:03:51.536Z,33.77
2022-10-22T07:06:18.941Z,28.73
2022-10-22T07:08:45.878Z,32.53
2022-10-22T07:11:17.150Z,26.57
2022-10-22T07:13:44.054Z,36.53
2022-10-22T07:16:12.456Z,33.77
2022-10-22T07:18:40.272Z,43.03
2022-10-22T07:21:08.651Z,36.70
2022-10-22T07:23:35.846Z,41.07
2022-10-22T07:26:02.997Z,36.03
2022-10-22T07:28:30.717Z,36.37
2022-10-22T07:30:57.494Z,36.13
2022-10-22T07:33:24.253Z,31.83
2022-10-22T07:35:51.091Z,40.77
2022-10-22T07:38:17.849Z,29.90
2022-10-22T07:40:44.682Z,29.43
2022-10-22T07:43:11.687Z,26.97
2022-10-22T07:45:38.541Z,30.30
2022-10-22T07:48:05.827Z,28.53
2022-10-22T07:50:32.590Z,26.63
2022-10-22T07:52:59.478Z,29.13
2022-10-22T07:55:26.503Z,24.10
2022-10-22T07:57:53.414Z,24.83
2022-10-22T08:00:23.081Z,28.27
2022-10-22T08:02:52.352Z,28.50
2022-10-22T08:05:19.368Z,27.40
2022-10-22T08:07:46.597Z,25.23
2022-10-22T08:10:13.735Z,26.57
2022-10-22T08:12:41.044Z,29.97
2022-10-22T08:15:08.713Z,32.43
2022-10-22T08:17:36.741Z,30.23
2022-10-22T08:20:04.354Z,34.33
2022-10-22T08:22:31.134Z,29.27
2022-10-22T08:24:57.978Z,32.47
2022-10-22T08:27:24.763Z,30.23
2022-10-22T08:29:51.741Z,32.60
2022-10-22T08:32:18.504Z,34.27
2022-10-22T08:34:45.247Z,35.53
2022-10-22T08:37:14.347Z,25.80
2022-10-22T08:39:41.450Z,29.77
2022-10-22T08:42:38.886Z,25.73
2022-10-22T08:45:09.010Z,28.37
2022-10-22T08:47:48.062Z,26.67
2022-10-22T08:50:22.623Z,27.47
2022-10-22T08:52:53.512Z,25.77
2022-10-22T08:55:24.045Z,24.93
2022-10-22T08:58:23.657Z,26.97
2022-10-22T09:01:02.877Z,25.53
2022-10-22T09:03:53.893Z,26.87
2022-10-22T09:06:24.781Z,28.87
2022-10-22T09:08:53.704Z,29.13
2022-10-22T09:11:20.450Z,23.53
2022-10-22T09:13:48.190Z,26.77
2022-10-22T09:16:19.406Z,25.77
2022-10-22T09:19:22.933Z,25.07
2022-10-22T09:22:17.564Z,24.53
2022-10-22T09:24:52.531Z,26.93
2022-10-22T09:27:23.626Z,25.07
2022-10-22T09:29:50.406Z,24.13
2022-10-22T09:32:18.188Z,24.57
2022-10-22T09:34:50.135Z,22.73
2022-10-22T09:37:19.531Z,23.57
2022-10-22T09:39:50.940Z,25.80
2022-10-22T09:42:21.043Z,21.83
2022-10-22T09:44:56.729Z,18.33
2022-10-22T09:47:42.908Z,19.57
2022-10-22T09:50:24.939Z,17.57
2022-10-22T09:53:11.645Z,21.80
2022-10-22T09:55:40.558Z,18.50
2022-10-22T09:58:14.209Z,17.47
2022-10-22T10:00:44.225Z,20.50
2022-10-22T10:03:21.792Z,22.77
2022-10-22T10:05:53.209Z,19.87
2022-10-22T10:08:20.391Z,18.90
2022-10-22T10:10:54.403Z,21.47
2022-10-22T10:13:42.446Z,18.40
2022-10-22T10:16:46.192Z,18.67
2022-10-22T10:19:39.486Z,20.60
2022-10-22T10:22:32.414Z,17.47
2022-10-22T10:25:26.567Z,16.00
2022-10-22T10:28:12.630Z,16.27
2022-10-22T10:31:11.377Z,16.73
2022-10-22T10:33:51.709Z,14.23
2022-10-22T10:36:43.308Z,15.40
2022-10-22T10:39:30.422Z,18.03
2022-10-22T10:42:35.705Z,15.37
2022-10-22T10:45:17.417Z,17.07
2022-10-22T10:48:25.678Z,19.30
2022-10-22T10:51:10.331Z,15.43
2022-10-22T10:54:11.456Z,15.70
2022-10-22T10:56:44.681Z,13.93
2022-10-22T10:59:39.620Z,14.77
2022-10-22T11:02:25.536Z,14.83
2022-10-22T11:04:55.273Z,14.27
2022-10-22T11:07:34.511Z,15.43
2022-10-22T11:10:28.686Z,17.67
2022-10-22T11:13:21.264Z,16.87
2022-10-22T11:16:10.120Z,13.90
2022-10-22T11:18:41.924Z,12.97
2022-10-22T11:21:11.643Z,16.17
2022-10-22T11:23:42.006Z,12.73
2022-10-22T11:26:19.168Z,13.40
2022-10-22T11:28:51.066Z,14.07
2022-10-22T11:31:19.050Z,14.13
2022-10-22T11:34:00.593Z,14.67
2022-10-22T11:36:33.676Z,13.03
2022-10-22T11:39:03.973Z,13.03
2022-10-22T11:41:33.427Z,12.30
2022-10-22T11:44:20.911Z,11.37
2022-10-22T11:46:58.779Z,11.23
2022-10-22T11:49:28.720Z,13.93
2022-10-22T11:52:23.264Z,14.07
2022-10-22T11:54:55.326Z,11.77
2022-10-22T11:57:27.249Z,12.83
2022-10-22T11:59:58.508Z,11.87
2022-10-22T12:02:38.421Z,10.63
2022-10-22T12:05:39.137Z,11.27
2022-10-22T12:08:21.475Z,12.57
2022-10-22T12:11:03.939Z,11.33
2022-10-22T12:13:51.904Z,10.03
2022-10-22T12:16:32.189Z,9.60
2022-10-22T12:19:25.732Z,8.70
2022-10-22T12:22:07.338Z,11.17
2022-10-22T12:24:40.599Z,16.53
2022-10-22T12:27:23.086Z,8.97
2022-10-22T12:29:55.462Z,8.90
2022-10-22T12:32:22.695Z,11.43
2022-10-22T12:34:51.483Z,7.27
2022-10-22T12:37:19.451Z,5.83
2022-10-22T12:39:46.770Z,8.33
2022-10-22T12:42:16.324Z,6.03
2022-10-22T12:44:46.080Z,10.73
2022-10-22T12:47:17.018Z,6.53
2022-10-22T12:49:47.945Z,6.03
2022-10-22T12:52:21.308Z,8.03
2022-10-22T12:54:52.355Z,7.63
2022-10-22T12:57:20.962Z,6.80
2022-10-22T12:59:50.630Z,6.30
2022-10-22T13:02:24.513Z,8.47
2022-10-22T13:05:20.985Z,4.27
2022-10-22T13:08:03.748Z,5.23
2022-10-22T13:10:36.383Z,6.10
2022-10-22T13:13:06.717Z,5.30
2022-10-22T13:15:37.585Z,5.80
2022-10-22T13:18:04.369Z,4.20
2022-10-22T13:20:31.409Z,5.10
2022-10-22T13:23:03.439Z,4.47
2022-10-22T13:25:31.933Z,4.97
2022-10-22T13:28:10.546Z,5.93
2022-10-22T13:30:39.108Z,5.47
2022-10-22T13:33:25.152Z,7.07
2022-10-22T13:35:52.840Z,5.80
2022-10-22T13:38:22.628Z,7.43
2022-10-22T13:40:49.855Z,5.17
2022-10-22T13:43:17.724Z,5.03
2022-10-22T13:45:46.686Z,7.30
2022-10-22T13:48:16.502Z,4.77
2022-10-22T13:50:43.683Z,5.63
2022-10-22T13:53:21.924Z,7.23
2022-10-22T13:55:50.184Z,4.47
2022-10-22T13:58:25.795Z,3.93
2022-10-22T14:00:58.925Z,6.57
2022-10-22T14:03:32.568Z,7.87
2022-10-22T14:05:59.855Z,6.10
2022-10-22T14:08:27.903Z,4.43
2022-10-22T14:10:54.928Z,5.57
2022-10-22T14:13:22.079Z,4.93
2022-10-22T14:15:51.513Z,6.23
2022-10-22T14:18:25.576Z,4.93
2022-10-22T14:20:54.927Z,4.67
2022-10-22T14:23:24.508Z,6.13
2022-10-22T14:25:53.691Z,6.00
2022-10-22T14:28:20.476Z,4.83
2022-10-22T14:30:48.166Z,5.93
2022-10-22T14:33:28.836Z,4.80
2022-10-22T14:36:00.040Z,6.43
2022-10-22T14:38:27.288Z,4.30
2022-10-22T14:40:54.816Z,5.63
2022-10-22T14:43:27.985Z,5.00
2022-10-22T14:45:54.808Z,3.87
2022-10-22T14:48:21.685Z,4.27
2022-10-22T14:50:48.914Z,6.10
2022-10-22T14:53:16.838Z,5.90
2022-10-22T14:55:44.886Z,6.53
2022-10-22T14:58:12.433Z,4.90
2022-10-22T15:00:41.952Z,5.87
2022-10-22T15:03:09.175Z,6.10
2022-10-22T15:05:36.410Z,7.57
2022-10-22T15:08:03.528Z,5.57
2022-10-22T15:10:30.329Z,5.30
2022-10-22T15:12:57.075Z,5.87
2022-10-22T15:15:25.588Z,5.67
2022-10-22T15:17:54.604Z,8.00
2022-10-22T15:20:21.379Z,7.03
2022-10-22T15:22:48.301Z,5.50
2022-10-22T15:25:15.079Z,6.37
2022-10-22T15:27:41.853Z,5.43
2022-10-22T15:30:09.020Z,5.73
2022-10-22T15:32:35.855Z,6.77
2022-10-22T15:35:03.184Z,6.77
2022-10-22T15:37:30.806Z,7.00
2022-10-22T15:39:58.311Z,5.50
2022-10-22T15:42:25.129Z,4.70
2022-10-22T15:44:58.353Z,7.03
2022-10-22T15:47:28.432Z,6.90
2022-10-22T15:49:55.602Z,5.10
2022-10-22T15:52:22.790Z,5.97
2022-10-22T15:54:49.636Z,7.70
2022-10-22T15:57:16.453Z,6.97
2022-10-22T15:59:43.274Z,6.50
2022-10-22T16:02:11.343Z,6.73
2022-10-22T16:04:38.986Z,7.47
2022-10-22T16:07:06.164Z,5.27
2022-10-22T16:09:32.935Z,6.77
2022-10-22T16:11:59.704Z,11.03
2022-10-22T16:14:28.586Z,12.60
2022-10-22T16:16:55.900Z,11.10
2022-10-22T16:19:24.786Z,12.17
2022-10-22T16:21:54.501Z,9.13
2022-10-22T16:24:22.624Z,7.80
2022-10-22T16:26:50.039Z,9.17
2022-10-22T16:29:16.862Z,7.07
2022-10-22T16:31:44.044Z,7.63
2022-10-22T16:34:11.556Z,6.03
2022-10-22T16:36:38.857Z,7.27
2022-10-22T16:39:06.922Z,6.10
2022-10-22T16:41:35.605Z,8.00
2022-10-22T16:44:05.263Z,9.43
2022-10-22T16:46:33.379Z,8.23
2022-10-22T16:49:00.399Z,11.37
2022-10-22T16:51:28.237Z,7.07
2022-10-22T16:53:56.702Z,13.87
2022-10-22T16:56:24.840Z,9.97
2022-10-22T16:58:54.785Z,7.83
2022-10-22T17:01:25.888Z,8.43
2022-10-22T17:03:54.736Z,8.07
2022-10-22T17:06:24.096Z,9.70
2022-10-22T17:08:50.975Z,9.60
2022-10-22T17:11:20.447Z,7.60
2022-10-22T17:13:49.596Z,9.50
2022-10-22T17:16:18.925Z,7.93
2022-10-22T17:21:14.465Z,9.93
2022-10-22T17:23:42.642Z,9.70
2022-10-22T17:26:17.845Z,11.70
2022-10-22T17:28:45.101Z,7.73
2022-10-22T17:31:18.137Z,9.50
2022-10-22T17:33:45.874Z,10.33
2022-10-22T17:36:13.673Z,7.77
2022-10-22T17:38:42.294Z,11.00
2022-10-22T17:41:14.562Z,10.37
2022-10-22T17:43:41.703Z,10.80
2022-10-22T17:46:20.671Z,9.93
2022-10-22T17:48:56.824Z,14.80
2022-10-22T17:51:26.326Z,9.23
2022-10-22T17:53:53.761Z,11.27
2022-10-22T17:56:23.759Z,10.33
2022-10-22T17:58:51.332Z,15.90
2022-10-22T18:01:22.686Z,11.00
2022-10-22T18:03:49.696Z,12.17
2022-10-22T18:06:16.714Z,12.93
2022-10-22T18:08:43.760Z,13.73
2022-10-22T18:11:13.298Z,12.03
2022-10-22T18:13:40.053Z,12.00
2022-10-22T18:16:07.131Z,13.77
2022-10-22T18:18:35.471Z,11.70
2022-10-22T18:21:03.460Z,9.83
2022-10-22T18:23:30.267Z,9.80
2022-10-22T18:25:57.001Z,12.87
2022-10-22T18:28:23.824Z,13.53
2022-10-22T18:30:51.298Z,10.90
2022-10-22T18:33:19.062Z,8.43
2022-10-22T18:35:46.587Z,12.23
2022-10-22T18:38:13.426Z,11.13
2022-10-22T18:40:47.092Z,9.27
2022-10-22T18:43:15.109Z,8.47
2022-10-22T18:45:43.573Z,9.17
2022-10-22T18:48:10.983Z,9.93
2022-10-22T18:50:37.814Z,8.63
2022-10-22T18:53:04.841Z,9.47
2022-10-22T18:55:31.602Z,9.43
2022-10-22T18:57:58.352Z,9.70
2022-10-22T19:00:28.416Z,7.63
2022-10-22T19:02:55.326Z,9.30
2022-10-22T19:05:22.191Z,8.47
2022-10-22T19:07:52.127Z,9.77
2022-10-22T19:10:18.937Z,11.07
2022-10-22T19:12:45.676Z,8.43
2022-10-22T19:15:12.599Z,9.77
2022-10-22T19:17:39.562Z,10.17
2022-10-22T19:20:07.063Z,9.27
2022-10-22T19:22:33.810Z,8.03
2022-10-22T19:25:00.656Z,9.20
2022-10-22T19:27:27.416Z,9.70
2022-10-22T19:29:54.198Z,13.17
2022-10-22T19:32:21.082Z,8.23
2022-10-22T19:34:47.873Z,11.40
2022-10-22T19:37:14.791Z,10.23
2022-10-22T19:39:41.755Z,11.20
2022-10-22T19:42:08.518Z,12.07
2022-10-22T19:44:35.694Z,10.77
2022-10-22T19:47:02.497Z,12.03
2022-10-22T19:49:29.373Z,12.07
2022-10-22T19:51:56.139Z,14.70
2022-10-22T19:54:22.972Z,12.70
2022-10-22T19:56:50.241Z,15.13
2022-10-22T19:59:20.367Z,12.33
2022-10-22T20:01:47.131Z,12.73
2022-10-22T20:04:15.639Z,12.33
2022-10-22T20:06:43.130Z,12.80
2022-10-22T20:09:11.156Z,11.67
2022-10-22T20:11:39.144Z,14.23
2022-10-22T20:14:05.929Z,10.33
2022-10-22T20:16:32.872Z,12.60
2022-10-22T20:19:02.028Z,10.87
2022-10-22T20:21:29.242Z,11.83
2022-10-22T20:23:57.374Z,11.50
2022-10-22T20:26:27.839Z,14.67
2022-10-22T20:28:56.316Z,13.60
2022-10-22T20:31:26.519Z,10.87
2022-10-22T20:33:55.161Z,9.03
2022-10-22T20:36:23.568Z,10.13
2022-10-22T20:38:51.515Z,10.97
2022-10-22T20:41:21.028Z,9.60
2022-10-22T20:43:49.250Z,9.20
2022-10-22T20:46:29.265Z,8.83
2022-10-22T20:49:01.615Z,9.90
2022-10-22T20:51:28.824Z,11.67
2022-10-22T20:53:55.594Z,11.60
2022-10-22T20:56:23.178Z,9.90
2022-10-22T20:58:53.697Z,9.27
2022-10-22T21:01:24.319Z,10.53
2022-10-22T21:03:52.387Z,11.23
2022-10-22T21:06:23.518Z,15.43
2022-10-22T21:08:51.435Z,11.20
2022-10-22T21:11:19.407Z,9.67
2022-10-22T21:13:46.581Z,12.93
2022-10-22T21:16:15.058Z,8.93
2022-10-22T21:18:41.819Z,8.33
2022-10-22T21:21:09.522Z,9.10
2022-10-22T21:23:37.237Z,8.93
2022-10-22T21:26:04.649Z,9.30
2022-10-22T21:28:35.332Z,9.47
2022-10-22T21:31:05.238Z,9.20
2022-10-22T21:33:32.332Z,9.93
2022-10-22T21:35:59.113Z,14.33
2022-10-22T21:38:26.072Z,8.03
2022-10-22T21:40:53.019Z,8.37
2022-10-22T21:43:20.282Z,10.57
2022-10-22T21:45:47.126Z,14.73
2022-10-22T21:48:14.787Z,10.57
2022-10-22T21:50:43.620Z,8.17
2022-10-22T21:53:12.171Z,9.37
2022-10-22T21:55:41.904Z,8.63
2022-10-22T21:58:09.145Z,8.60
2022-10-22T22:00:36.328Z,11.00
2022-10-22T22:03:06.015Z,7.57
2022-10-22T22:05:33.189Z,10.47
2022-10-22T22:08:00.088Z,12.90
2022-10-22T22:10:27.062Z,12.83
2022-10-22T22:12:53.894Z,14.97
2022-10-22T22:15:20.900Z,15.10
2022-10-22T22:17:47.756Z,8.17
2022-10-22T22:20:14.604Z,9.67
2022-10-22T22:22:41.716Z,7.47
2022-10-22T22:25:09.056Z,7.10
2022-10-22T22:27:35.849Z,6.63
2022-10-22T22:30:02.839Z,12.17
2022-10-22T22:32:29.794Z,8.87
2022-10-22T22:34:56.592Z,9.43
2022-10-22T22:37:23.427Z,8.53
2022-10-22T22:39:50.203Z,9.53
2022-10-22T22:42:17.051Z,11.43
2022-10-22T22:44:43.889Z,7.33
2022-10-22T22:47:10.845Z,11.37
2022-10-22T22:49:37.619Z,10.80
2022-10-22T22:52:04.921Z,8.17
2022-10-22T22:54:31.729Z,9.60
2022-10-22T22:56:58.772Z,9.67
2022-10-22T22:59:25.558Z,10.67
2022-10-22T23:01:52.321Z,8.63
2022-10-22T23:04:23.613Z,11.30
2022-10-22T23:06:51.255Z,11.40
2022-10-22T23:11:48.277Z,8.73
2022-10-22T23:14:16.740Z,9.20
2022-10-22T23:16:47.105Z,9.73
2022-10-22T23:19:16.589Z,10.07
2022-10-22T23:21:49.755Z,9.37
2022-10-22T23:24:19.490Z,11.93
2022-10-22T23:26:48.785Z,13.10
2022-10-22T23:29:26.182Z,12.00
2022-10-22T23:31:54.119Z,12.73
2022-10-22T23:34:24.059Z,9.87
2022-10-22T23:36:52.303Z,12.60
2022-10-22T23:39:21.915Z,9.93
2022-10-22T23:41:48.804Z,11.93
2022-10-22T23:44:15.889Z,12.03
2022-10-22T23:46:43.330Z,13.20
2022-10-22T23:49:10.930Z,11.47
2022-10-22T23:51:38.853Z,11.43
2022-10-22T23:54:07.929Z,10.10
2022-10-22T23:56:35.634Z,12.67
2022-10-22T23:59:03.416Z,11.13
